<?xml version="1.0" encoding="UTF-8"?>
<gpx xmlns="http://www.topografix.com/GPX/1/1" version="1.1" xmlns:xsi="http://www.w3.org/2001/XMLSchema-instance" xsi:schemaLocation="http://www.topografix.com/GPX/1/1 http://www.topografix.com/GPX/1/1/gpx.xsd" creator="MotionXGPSFull 24.4 Build 5112 R64">
<trk>
<name><![CDATA[Sunday Hike Kornhill Braemar]]></name>
<desc><![CDATA[Dec 30, 2018 10:27 am]]></desc>
<trkseg>
<trkpt lat="22.2846761" lon="114.2147689">
<ele>114.102</ele>
<time>2018-12-30T02:28:03.080Z</time>
</trkpt>
<trkpt lat="22.2846761" lon="114.2147689">
<ele>114.102</ele>
<time>2018-12-30T02:28:03.080Z</time>
</trkpt>
<trkpt lat="22.2846637" lon="114.2137863">
<ele>19.405</ele>
<time>2018-12-30T02:29:06.961Z</time>
</trkpt>
<trkpt lat="22.2843243" lon="114.2141561">
<ele>19.396</ele>
<time>2018-12-30T02:29:37.294Z</time>
</trkpt>
<trkpt lat="22.2843243" lon="114.2141561">
<ele>19.396</ele>
<time>2018-12-30T02:29:37.294Z</time>
</trkpt>
<trkpt lat="22.2845591" lon="114.2114230">
<ele>38.816</ele>
<time>2018-12-30T02:32:51.978Z</time>
</trkpt>
<trkpt lat="22.2845591" lon="114.2114230">
<ele>38.816</ele>
<time>2018-12-30T02:32:51.978Z</time>
</trkpt>
<trkpt lat="22.2831482" lon="114.2136768">
<ele>0.000</ele>
<time>2018-12-30T02:34:36.356Z</time>
</trkpt>
<trkpt lat="22.2831482" lon="114.2136768">
<ele>0.000</ele>
<time>2018-12-30T02:34:36.356Z</time>
</trkpt>
<trkpt lat="22.2823010" lon="114.2137582">
<ele>17.113</ele>
<time>2018-12-30T02:35:07.455Z</time>
</trkpt>
<trkpt lat="22.2823010" lon="114.2137582">
<ele>17.113</ele>
<time>2018-12-30T02:35:07.455Z</time>
</trkpt>
<trkpt lat="22.2821794" lon="114.2137447">
<ele>30.116</ele>
<time>2018-12-30T02:35:11.926Z</time>
</trkpt>
<trkpt lat="22.2821794" lon="114.2137447">
<ele>30.116</ele>
<time>2018-12-30T02:35:11.926Z</time>
</trkpt>
<trkpt lat="22.2813589" lon="114.2137388">
<ele>35.565</ele>
<time>2018-12-30T02:35:41.932Z</time>
</trkpt>
<trkpt lat="22.2813589" lon="114.2137388">
<ele>35.565</ele>
<time>2018-12-30T02:35:41.932Z</time>
</trkpt>
<trkpt lat="22.2812583" lon="114.2136879">
<ele>33.007</ele>
<time>2018-12-30T02:35:45.992Z</time>
</trkpt>
<trkpt lat="22.2812583" lon="114.2136879">
<ele>32.992</ele>
<time>2018-12-30T02:35:49.992Z</time>
</trkpt>
<trkpt lat="22.2812583" lon="114.2136879">
<ele>32.983</ele>
<time>2018-12-30T02:35:50.092Z</time>
</trkpt>
<trkpt lat="22.2812583" lon="114.2136879">
<ele>32.983</ele>
<time>2018-12-30T02:35:50.092Z</time>
</trkpt>
<trkpt lat="22.2809322" lon="114.2133499">
<ele>24.086</ele>
<time>2018-12-30T02:36:50.666Z</time>
</trkpt>
<trkpt lat="22.2804763" lon="114.2135279">
<ele>24.074</ele>
<time>2018-12-30T02:37:30.608Z</time>
</trkpt>
<trkpt lat="22.2803771" lon="114.2135465">
<ele>24.853</ele>
<time>2018-12-30T02:37:36.426Z</time>
</trkpt>
<trkpt lat="22.2802816" lon="114.2135301">
<ele>27.646</ele>
<time>2018-12-30T02:37:41.802Z</time>
</trkpt>
<trkpt lat="22.2802042" lon="114.2134794">
<ele>31.863</ele>
<time>2018-12-30T02:37:47.329Z</time>
</trkpt>
<trkpt lat="22.2801199" lon="114.2134277">
<ele>35.588</ele>
<time>2018-12-30T02:37:54.013Z</time>
</trkpt>
<trkpt lat="22.2800379" lon="114.2133565">
<ele>37.905</ele>
<time>2018-12-30T02:38:02.623Z</time>
</trkpt>
<trkpt lat="22.2799414" lon="114.2133525">
<ele>38.864</ele>
<time>2018-12-30T02:38:09.786Z</time>
</trkpt>
<trkpt lat="22.2798950" lon="114.2132672">
<ele>38.819</ele>
<time>2018-12-30T02:38:16.722Z</time>
</trkpt>
<trkpt lat="22.2799003" lon="114.2131464">
<ele>38.081</ele>
<time>2018-12-30T02:38:24.988Z</time>
</trkpt>
<trkpt lat="22.2799003" lon="114.2131464">
<ele>36.946</ele>
<time>2018-12-30T02:38:33.987Z</time>
</trkpt>
<trkpt lat="22.2799003" lon="114.2131464">
<ele>36.169</ele>
<time>2018-12-30T02:38:34.341Z</time>
</trkpt>
<trkpt lat="22.2798952" lon="114.2133647">
<ele>36.344</ele>
<time>2018-12-30T02:38:55.987Z</time>
</trkpt>
<trkpt lat="22.2798952" lon="114.2133647">
<ele>36.983</ele>
<time>2018-12-30T02:39:02.986Z</time>
</trkpt>
<trkpt lat="22.2798952" lon="114.2133647">
<ele>37.285</ele>
<time>2018-12-30T02:40:00.340Z</time>
</trkpt>
<trkpt lat="22.2798986" lon="114.2132450">
<ele>37.182</ele>
<time>2018-12-30T02:40:34.862Z</time>
</trkpt>
<trkpt lat="22.2794580" lon="114.2130888">
<ele>37.034</ele>
<time>2018-12-30T02:41:55.248Z</time>
</trkpt>
<trkpt lat="22.2793652" lon="114.2130725">
<ele>37.018</ele>
<time>2018-12-30T02:42:06.931Z</time>
</trkpt>
<trkpt lat="22.2794795" lon="114.2130761">
<ele>36.725</ele>
<time>2018-12-30T02:42:21.166Z</time>
</trkpt>
<trkpt lat="22.2793816" lon="114.2130969">
<ele>36.142</ele>
<time>2018-12-30T02:42:37.995Z</time>
</trkpt>
<trkpt lat="22.2793816" lon="114.2130969">
<ele>35.709</ele>
<time>2018-12-30T02:42:50.994Z</time>
</trkpt>
<trkpt lat="22.2793816" lon="114.2130969">
<ele>35.709</ele>
<time>2018-12-30T02:42:51.094Z</time>
</trkpt>
<trkpt lat="22.2792677" lon="114.2131205">
<ele>35.917</ele>
<time>2018-12-30T02:43:01.994Z</time>
</trkpt>
<trkpt lat="22.2792677" lon="114.2131205">
<ele>36.043</ele>
<time>2018-12-30T02:43:05.994Z</time>
</trkpt>
<trkpt lat="22.2792677" lon="114.2131205">
<ele>36.038</ele>
<time>2018-12-30T02:43:06.094Z</time>
</trkpt>
<trkpt lat="22.2791278" lon="114.2131169">
<ele>36.000</ele>
<time>2018-12-30T02:43:32.914Z</time>
</trkpt>
<trkpt lat="22.2786202" lon="114.2131236">
<ele>36.273</ele>
<time>2018-12-30T02:44:50.888Z</time>
</trkpt>
<trkpt lat="22.2782383" lon="114.2133811">
<ele>37.153</ele>
<time>2018-12-30T02:46:00.992Z</time>
</trkpt>
<trkpt lat="22.2781457" lon="114.2134134">
<ele>38.383</ele>
<time>2018-12-30T02:46:16.173Z</time>
</trkpt>
<trkpt lat="22.2780543" lon="114.2134352">
<ele>39.558</ele>
<time>2018-12-30T02:46:33.933Z</time>
</trkpt>
<trkpt lat="22.2776530" lon="114.2136940">
<ele>41.035</ele>
<time>2018-12-30T02:48:30.997Z</time>
</trkpt>
<trkpt lat="22.2776530" lon="114.2136940">
<ele>41.168</ele>
<time>2018-12-30T02:48:35.997Z</time>
</trkpt>
<trkpt lat="22.2776530" lon="114.2136940">
<ele>41.130</ele>
<time>2018-12-30T02:48:58.996Z</time>
</trkpt>
<trkpt lat="22.2776530" lon="114.2136940">
<ele>41.091</ele>
<time>2018-12-30T02:49:01.680Z</time>
</trkpt>
<trkpt lat="22.2775147" lon="114.2137242">
<ele>41.086</ele>
<time>2018-12-30T02:49:20.501Z</time>
</trkpt>
<trkpt lat="22.2774201" lon="114.2137736">
<ele>41.339</ele>
<time>2018-12-30T02:49:27.995Z</time>
</trkpt>
<trkpt lat="22.2774201" lon="114.2137736">
<ele>41.984</ele>
<time>2018-12-30T02:49:40.995Z</time>
</trkpt>
<trkpt lat="22.2774201" lon="114.2137736">
<ele>42.510</ele>
<time>2018-12-30T02:49:41.095Z</time>
</trkpt>
<trkpt lat="22.2769478" lon="114.2137460">
<ele>42.184</ele>
<time>2018-12-30T02:50:28.994Z</time>
</trkpt>
<trkpt lat="22.2769478" lon="114.2137460">
<ele>41.994</ele>
<time>2018-12-30T02:50:38.993Z</time>
</trkpt>
<trkpt lat="22.2769478" lon="114.2137460">
<ele>41.961</ele>
<time>2018-12-30T02:50:48.424Z</time>
</trkpt>
<trkpt lat="22.2766843" lon="114.2137815">
<ele>41.970</ele>
<time>2018-12-30T02:52:50.190Z</time>
</trkpt>
<trkpt lat="22.2767750" lon="114.2137706">
<ele>40.992</ele>
<time>2018-12-30T02:53:10.802Z</time>
</trkpt>
<trkpt lat="22.2763896" lon="114.2134861">
<ele>36.699</ele>
<time>2018-12-30T02:54:56.956Z</time>
</trkpt>
<trkpt lat="22.2767042" lon="114.2130893">
<ele>38.881</ele>
<time>2018-12-30T02:59:13.991Z</time>
</trkpt>
<trkpt lat="22.2767042" lon="114.2130893">
<ele>46.242</ele>
<time>2018-12-30T02:59:13.992Z</time>
</trkpt>
<trkpt lat="22.2767042" lon="114.2130893">
<ele>56.242</ele>
<time>2018-12-30T02:59:51.990Z</time>
</trkpt>
<trkpt lat="22.2767042" lon="114.2130893">
<ele>62.520</ele>
<time>2018-12-30T02:59:52.090Z</time>
</trkpt>
<trkpt lat="22.2767042" lon="114.2130893">
<ele>58.856</ele>
<time>2018-12-30T03:00:09.990Z</time>
</trkpt>
<trkpt lat="22.2767042" lon="114.2130893">
<ele>56.853</ele>
<time>2018-12-30T03:00:18.196Z</time>
</trkpt>
<trkpt lat="22.2767323" lon="114.2129609">
<ele>57.406</ele>
<time>2018-12-30T03:00:27.989Z</time>
</trkpt>
<trkpt lat="22.2767323" lon="114.2129609">
<ele>59.142</ele>
<time>2018-12-30T03:00:36.989Z</time>
</trkpt>
<trkpt lat="22.2767323" lon="114.2129609">
<ele>59.942</ele>
<time>2018-12-30T03:01:02.347Z</time>
</trkpt>
<trkpt lat="22.2768222" lon="114.2128486">
<ele>59.667</ele>
<time>2018-12-30T03:01:19.998Z</time>
</trkpt>
<trkpt lat="22.2768222" lon="114.2128486">
<ele>59.346</ele>
<time>2018-12-30T03:01:22.998Z</time>
</trkpt>
<trkpt lat="22.2768222" lon="114.2128486">
<ele>59.316</ele>
<time>2018-12-30T03:01:41.255Z</time>
</trkpt>
<trkpt lat="22.2767697" lon="114.2129505">
<ele>59.458</ele>
<time>2018-12-30T03:02:19.738Z</time>
</trkpt>
<trkpt lat="22.2767782" lon="114.2128532">
<ele>62.204</ele>
<time>2018-12-30T03:02:32.761Z</time>
</trkpt>
<trkpt lat="22.2767758" lon="114.2127552">
<ele>70.335</ele>
<time>2018-12-30T03:02:45.919Z</time>
</trkpt>
<trkpt lat="22.2768431" lon="114.2126710">
<ele>80.597</ele>
<time>2018-12-30T03:03:00.863Z</time>
</trkpt>
<trkpt lat="22.2769297" lon="114.2127135">
<ele>87.668</ele>
<time>2018-12-30T03:03:20.129Z</time>
</trkpt>
<trkpt lat="22.2769552" lon="114.2128070">
<ele>91.278</ele>
<time>2018-12-30T03:03:39.995Z</time>
</trkpt>
<trkpt lat="22.2769552" lon="114.2128070">
<ele>93.206</ele>
<time>2018-12-30T03:03:44.995Z</time>
</trkpt>
<trkpt lat="22.2769552" lon="114.2128070">
<ele>93.972</ele>
<time>2018-12-30T03:07:54.227Z</time>
</trkpt>
<trkpt lat="22.2771189" lon="114.2126545">
<ele>93.821</ele>
<time>2018-12-30T03:08:57.910Z</time>
</trkpt>
<trkpt lat="22.2770239" lon="114.2121584">
<ele>94.260</ele>
<time>2018-12-30T03:10:37.996Z</time>
</trkpt>
<trkpt lat="22.2770239" lon="114.2121584">
<ele>95.809</ele>
<time>2018-12-30T03:10:38.996Z</time>
</trkpt>
<trkpt lat="22.2770239" lon="114.2121584">
<ele>96.360</ele>
<time>2018-12-30T03:10:58.995Z</time>
</trkpt>
<trkpt lat="22.2770239" lon="114.2121584">
<ele>95.951</ele>
<time>2018-12-30T03:10:58.999Z</time>
</trkpt>
<trkpt lat="22.2770348" lon="114.2120617">
<ele>95.902</ele>
<time>2018-12-30T03:11:12.998Z</time>
</trkpt>
<trkpt lat="22.2770997" lon="114.2119342">
<ele>97.589</ele>
<time>2018-12-30T03:11:15.995Z</time>
</trkpt>
<trkpt lat="22.2770997" lon="114.2119342">
<ele>101.538</ele>
<time>2018-12-30T03:11:22.995Z</time>
</trkpt>
<trkpt lat="22.2770997" lon="114.2119342">
<ele>104.741</ele>
<time>2018-12-30T03:11:23.095Z</time>
</trkpt>
<trkpt lat="22.2770655" lon="114.2114011">
<ele>102.039</ele>
<time>2018-12-30T03:13:00.285Z</time>
</trkpt>
<trkpt lat="22.2771153" lon="114.2113200">
<ele>103.315</ele>
<time>2018-12-30T03:13:08.272Z</time>
</trkpt>
<trkpt lat="22.2771057" lon="114.2112178">
<ele>106.107</ele>
<time>2018-12-30T03:13:17.762Z</time>
</trkpt>
<trkpt lat="22.2770997" lon="114.2111121">
<ele>108.470</ele>
<time>2018-12-30T03:13:29.993Z</time>
</trkpt>
<trkpt lat="22.2770997" lon="114.2111121">
<ele>109.356</ele>
<time>2018-12-30T03:13:39.993Z</time>
</trkpt>
<trkpt lat="22.2770997" lon="114.2111121">
<ele>109.292</ele>
<time>2018-12-30T03:13:51.837Z</time>
</trkpt>
<trkpt lat="22.2774640" lon="114.2108272">
<ele>109.106</ele>
<time>2018-12-30T03:15:24.509Z</time>
</trkpt>
<trkpt lat="22.2778712" lon="114.2110599">
<ele>109.697</ele>
<time>2018-12-30T03:16:14.998Z</time>
</trkpt>
<trkpt lat="22.2778712" lon="114.2110599">
<ele>110.579</ele>
<time>2018-12-30T03:16:16.998Z</time>
</trkpt>
<trkpt lat="22.2778712" lon="114.2110599">
<ele>110.874</ele>
<time>2018-12-30T03:16:17.098Z</time>
</trkpt>
<trkpt lat="22.2779824" lon="114.2111986">
<ele>110.611</ele>
<time>2018-12-30T03:17:45.478Z</time>
</trkpt>
<trkpt lat="22.2780427" lon="114.2112761">
<ele>110.850</ele>
<time>2018-12-30T03:17:51.996Z</time>
</trkpt>
<trkpt lat="22.2780427" lon="114.2112761">
<ele>111.842</ele>
<time>2018-12-30T03:18:00.995Z</time>
</trkpt>
<trkpt lat="22.2780427" lon="114.2112761">
<ele>112.695</ele>
<time>2018-12-30T03:18:01.095Z</time>
</trkpt>
<trkpt lat="22.2780904" lon="114.2114326">
<ele>112.638</ele>
<time>2018-12-30T03:18:29.995Z</time>
</trkpt>
<trkpt lat="22.2780904" lon="114.2114326">
<ele>112.239</ele>
<time>2018-12-30T03:18:35.995Z</time>
</trkpt>
<trkpt lat="22.2780904" lon="114.2114326">
<ele>112.159</ele>
<time>2018-12-30T03:18:36.095Z</time>
</trkpt>
<trkpt lat="22.2781664" lon="114.2113269">
<ele>112.270</ele>
<time>2018-12-30T03:18:52.637Z</time>
</trkpt>
<trkpt lat="22.2781675" lon="114.2112287">
<ele>112.790</ele>
<time>2018-12-30T03:18:58.069Z</time>
</trkpt>
<trkpt lat="22.2780987" lon="114.2111340">
<ele>114.311</ele>
<time>2018-12-30T03:19:03.265Z</time>
</trkpt>
<trkpt lat="22.2780133" lon="114.2111032">
<ele>115.932</ele>
<time>2018-12-30T03:19:06.994Z</time>
</trkpt>
<trkpt lat="22.2780133" lon="114.2111032">
<ele>116.728</ele>
<time>2018-12-30T03:19:14.994Z</time>
</trkpt>
<trkpt lat="22.2780133" lon="114.2111032">
<ele>116.870</ele>
<time>2018-12-30T03:21:09.532Z</time>
</trkpt>
<trkpt lat="22.2780150" lon="114.2109819">
<ele>116.649</ele>
<time>2018-12-30T03:21:48.740Z</time>
</trkpt>
<trkpt lat="22.2780134" lon="114.2108772">
<ele>116.116</ele>
<time>2018-12-30T03:21:57.630Z</time>
</trkpt>
<trkpt lat="22.2780300" lon="114.2107775">
<ele>115.216</ele>
<time>2018-12-30T03:22:02.989Z</time>
</trkpt>
<trkpt lat="22.2780300" lon="114.2107775">
<ele>114.162</ele>
<time>2018-12-30T03:22:04.989Z</time>
</trkpt>
<trkpt lat="22.2780300" lon="114.2107775">
<ele>113.509</ele>
<time>2018-12-30T03:22:18.164Z</time>
</trkpt>
<trkpt lat="22.2779310" lon="114.2107023">
<ele>113.501</ele>
<time>2018-12-30T03:22:34.231Z</time>
</trkpt>
<trkpt lat="22.2780122" lon="114.2106369">
<ele>113.044</ele>
<time>2018-12-30T03:22:44.598Z</time>
</trkpt>
<trkpt lat="22.2781040" lon="114.2106387">
<ele>111.337</ele>
<time>2018-12-30T03:22:53.998Z</time>
</trkpt>
<trkpt lat="22.2781040" lon="114.2106387">
<ele>109.584</ele>
<time>2018-12-30T03:23:00.998Z</time>
</trkpt>
<trkpt lat="22.2781040" lon="114.2106387">
<ele>109.008</ele>
<time>2018-12-30T03:23:05.415Z</time>
</trkpt>
<trkpt lat="22.2783003" lon="114.2105882">
<ele>109.421</ele>
<time>2018-12-30T03:23:26.998Z</time>
</trkpt>
<trkpt lat="22.2783003" lon="114.2105882">
<ele>110.040</ele>
<time>2018-12-30T03:23:32.998Z</time>
</trkpt>
<trkpt lat="22.2783003" lon="114.2105882">
<ele>110.212</ele>
<time>2018-12-30T03:23:33.075Z</time>
</trkpt>
<trkpt lat="22.2784307" lon="114.2105094">
<ele>110.039</ele>
<time>2018-12-30T03:23:52.980Z</time>
</trkpt>
<trkpt lat="22.2784917" lon="114.2104252">
<ele>110.491</ele>
<time>2018-12-30T03:24:03.557Z</time>
</trkpt>
<trkpt lat="22.2784849" lon="114.2103236">
<ele>111.933</ele>
<time>2018-12-30T03:24:16.371Z</time>
</trkpt>
<trkpt lat="22.2785401" lon="114.2102360">
<ele>113.334</ele>
<time>2018-12-30T03:24:30.061Z</time>
</trkpt>
<trkpt lat="22.2786248" lon="114.2101989">
<ele>113.751</ele>
<time>2018-12-30T03:24:39.933Z</time>
</trkpt>
<trkpt lat="22.2787023" lon="114.2101382">
<ele>113.599</ele>
<time>2018-12-30T03:24:49.679Z</time>
</trkpt>
<trkpt lat="22.2787890" lon="114.2100994">
<ele>113.561</ele>
<time>2018-12-30T03:24:59.996Z</time>
</trkpt>
<trkpt lat="22.2787890" lon="114.2100994">
<ele>113.710</ele>
<time>2018-12-30T03:25:12.996Z</time>
</trkpt>
<trkpt lat="22.2787890" lon="114.2100994">
<ele>113.760</ele>
<time>2018-12-30T03:25:18.911Z</time>
</trkpt>
<trkpt lat="22.2788412" lon="114.2099676">
<ele>113.673</ele>
<time>2018-12-30T03:26:19.164Z</time>
</trkpt>
<trkpt lat="22.2788473" lon="114.2098668">
<ele>113.990</ele>
<time>2018-12-30T03:26:27.634Z</time>
</trkpt>
<trkpt lat="22.2788123" lon="114.2097726">
<ele>115.015</ele>
<time>2018-12-30T03:26:32.993Z</time>
</trkpt>
<trkpt lat="22.2788123" lon="114.2097726">
<ele>116.118</ele>
<time>2018-12-30T03:26:45.993Z</time>
</trkpt>
<trkpt lat="22.2788123" lon="114.2097726">
<ele>116.566</ele>
<time>2018-12-30T03:31:56.561Z</time>
</trkpt>
<trkpt lat="22.2788970" lon="114.2097336">
<ele>116.163</ele>
<time>2018-12-30T03:32:37.995Z</time>
</trkpt>
<trkpt lat="22.2788970" lon="114.2097336">
<ele>115.995</ele>
<time>2018-12-30T03:32:42.995Z</time>
</trkpt>
<trkpt lat="22.2788970" lon="114.2097336">
<ele>115.959</ele>
<time>2018-12-30T03:32:43.095Z</time>
</trkpt>
<trkpt lat="22.2790344" lon="114.2095621">
<ele>115.987</ele>
<time>2018-12-30T03:33:06.994Z</time>
</trkpt>
<trkpt lat="22.2790344" lon="114.2095621">
<ele>115.994</ele>
<time>2018-12-30T03:33:10.994Z</time>
</trkpt>
<trkpt lat="22.2790344" lon="114.2095621">
<ele>115.949</ele>
<time>2018-12-30T03:33:11.094Z</time>
</trkpt>
<trkpt lat="22.2790344" lon="114.2095621">
<ele>115.857</ele>
<time>2018-12-30T03:33:14.994Z</time>
</trkpt>
<trkpt lat="22.2790344" lon="114.2095621">
<ele>115.835</ele>
<time>2018-12-30T03:33:55.621Z</time>
</trkpt>
<trkpt lat="22.2790344" lon="114.2095621">
<ele>115.751</ele>
<time>2018-12-30T03:34:16.993Z</time>
</trkpt>
<trkpt lat="22.2790344" lon="114.2095621">
<ele>115.715</ele>
<time>2018-12-30T03:34:17.093Z</time>
</trkpt>
<trkpt lat="22.2790344" lon="114.2095621">
<ele>115.643</ele>
<time>2018-12-30T03:34:20.992Z</time>
</trkpt>
<trkpt lat="22.2790344" lon="114.2095621">
<ele>115.609</ele>
<time>2018-12-30T03:34:45.887Z</time>
</trkpt>
<trkpt lat="22.2791723" lon="114.2094651">
<ele>115.576</ele>
<time>2018-12-30T03:35:12.991Z</time>
</trkpt>
<trkpt lat="22.2791723" lon="114.2094651">
<ele>115.546</ele>
<time>2018-12-30T03:35:26.991Z</time>
</trkpt>
<trkpt lat="22.2791723" lon="114.2094651">
<ele>115.514</ele>
<time>2018-12-30T03:35:27.091Z</time>
</trkpt>
<trkpt lat="22.2791115" lon="114.2093897">
<ele>115.433</ele>
<time>2018-12-30T03:35:41.990Z</time>
</trkpt>
<trkpt lat="22.2791115" lon="114.2093897">
<ele>115.411</ele>
<time>2018-12-30T03:35:52.990Z</time>
</trkpt>
<trkpt lat="22.2791115" lon="114.2093897">
<ele>115.390</ele>
<time>2018-12-30T03:35:53.090Z</time>
</trkpt>
<trkpt lat="22.2791502" lon="114.2092721">
<ele>115.352</ele>
<time>2018-12-30T03:36:03.990Z</time>
</trkpt>
<trkpt lat="22.2791502" lon="114.2092721">
<ele>115.310</ele>
<time>2018-12-30T03:36:09.990Z</time>
</trkpt>
<trkpt lat="22.2791502" lon="114.2092721">
<ele>115.276</ele>
<time>2018-12-30T03:36:10.066Z</time>
</trkpt>
<trkpt lat="22.2792565" lon="114.2091831">
<ele>115.244</ele>
<time>2018-12-30T03:36:26.989Z</time>
</trkpt>
<trkpt lat="22.2792565" lon="114.2091831">
<ele>115.216</ele>
<time>2018-12-30T03:36:28.989Z</time>
</trkpt>
<trkpt lat="22.2792565" lon="114.2091831">
<ele>115.184</ele>
<time>2018-12-30T03:36:34.086Z</time>
</trkpt>
<trkpt lat="22.2792825" lon="114.2090806">
<ele>115.102</ele>
<time>2018-12-30T03:36:49.106Z</time>
</trkpt>
<trkpt lat="22.2793232" lon="114.2089825">
<ele>118.672</ele>
<time>2018-12-30T03:36:55.997Z</time>
</trkpt>
<trkpt lat="22.2793232" lon="114.2089825">
<ele>128.022</ele>
<time>2018-12-30T03:36:58.997Z</time>
</trkpt>
<trkpt lat="22.2793232" lon="114.2089825">
<ele>135.804</ele>
<time>2018-12-30T03:37:18.133Z</time>
</trkpt>
<trkpt lat="22.2794010" lon="114.2089245">
<ele>131.437</ele>
<time>2018-12-30T03:37:32.999Z</time>
</trkpt>
<trkpt lat="22.2794010" lon="114.2089245">
<ele>128.819</ele>
<time>2018-12-30T03:37:32.999Z</time>
</trkpt>
<trkpt lat="22.2794010" lon="114.2089245">
<ele>128.916</ele>
<time>2018-12-30T03:37:33.099Z</time>
</trkpt>
<trkpt lat="22.2794922" lon="114.2089131">
<ele>129.846</ele>
<time>2018-12-30T03:37:50.185Z</time>
</trkpt>
<trkpt lat="22.2795911" lon="114.2089018">
<ele>130.900</ele>
<time>2018-12-30T03:37:58.998Z</time>
</trkpt>
<trkpt lat="22.2795911" lon="114.2089018">
<ele>134.806</ele>
<time>2018-12-30T03:38:01.998Z</time>
</trkpt>
<trkpt lat="22.2795911" lon="114.2089018">
<ele>138.270</ele>
<time>2018-12-30T03:38:02.098Z</time>
</trkpt>
<trkpt lat="22.2796966" lon="114.2089422">
<ele>136.275</ele>
<time>2018-12-30T03:38:26.944Z</time>
</trkpt>
<trkpt lat="22.2797937" lon="114.2089740">
<ele>136.314</ele>
<time>2018-12-30T03:38:46.125Z</time>
</trkpt>
<trkpt lat="22.2798823" lon="114.2089969">
<ele>139.571</ele>
<time>2018-12-30T03:39:05.291Z</time>
</trkpt>
<trkpt lat="22.2799453" lon="114.2089024">
<ele>143.307</ele>
<time>2018-12-30T03:39:31.033Z</time>
</trkpt>
<trkpt lat="22.2799648" lon="114.2088009">
<ele>144.911</ele>
<time>2018-12-30T03:39:55.995Z</time>
</trkpt>
<trkpt lat="22.2799648" lon="114.2088009">
<ele>145.001</ele>
<time>2018-12-30T03:39:55.995Z</time>
</trkpt>
<trkpt lat="22.2799648" lon="114.2088009">
<ele>144.805</ele>
<time>2018-12-30T03:40:10.389Z</time>
</trkpt>
<trkpt lat="22.2800593" lon="114.2088173">
<ele>144.781</ele>
<time>2018-12-30T03:40:45.994Z</time>
</trkpt>
<trkpt lat="22.2800593" lon="114.2088173">
<ele>144.817</ele>
<time>2018-12-30T03:40:48.994Z</time>
</trkpt>
<trkpt lat="22.2800593" lon="114.2088173">
<ele>144.811</ele>
<time>2018-12-30T03:47:26.936Z</time>
</trkpt>
<trkpt lat="22.2800251" lon="114.2086661">
<ele>144.749</ele>
<time>2018-12-30T03:47:47.387Z</time>
</trkpt>
<trkpt lat="22.2800908" lon="114.2085936">
<ele>145.090</ele>
<time>2018-12-30T03:47:57.994Z</time>
</trkpt>
<trkpt lat="22.2800908" lon="114.2085936">
<ele>146.123</ele>
<time>2018-12-30T03:48:06.994Z</time>
</trkpt>
<trkpt lat="22.2800908" lon="114.2085936">
<ele>146.984</ele>
<time>2018-12-30T03:48:07.094Z</time>
</trkpt>
<trkpt lat="22.2801466" lon="114.2085078">
<ele>146.381</ele>
<time>2018-12-30T03:48:29.994Z</time>
</trkpt>
<trkpt lat="22.2801466" lon="114.2085078">
<ele>146.038</ele>
<time>2018-12-30T03:48:35.993Z</time>
</trkpt>
<trkpt lat="22.2801466" lon="114.2085078">
<ele>145.998</ele>
<time>2018-12-30T03:49:14.485Z</time>
</trkpt>
<trkpt lat="22.2801967" lon="114.2084142">
<ele>146.101</ele>
<time>2018-12-30T03:49:35.116Z</time>
</trkpt>
<trkpt lat="22.2802869" lon="114.2084143">
<ele>147.124</ele>
<time>2018-12-30T03:49:45.456Z</time>
</trkpt>
<trkpt lat="22.2802200" lon="114.2083440">
<ele>149.646</ele>
<time>2018-12-30T03:49:54.991Z</time>
</trkpt>
<trkpt lat="22.2802200" lon="114.2083440">
<ele>152.227</ele>
<time>2018-12-30T03:50:12.991Z</time>
</trkpt>
<trkpt lat="22.2802200" lon="114.2083440">
<ele>153.281</ele>
<time>2018-12-30T03:50:43.467Z</time>
</trkpt>
<trkpt lat="22.2801115" lon="114.2080831">
<ele>153.053</ele>
<time>2018-12-30T03:51:08.989Z</time>
</trkpt>
<trkpt lat="22.2801115" lon="114.2080831">
<ele>152.569</ele>
<time>2018-12-30T03:51:11.996Z</time>
</trkpt>
<trkpt lat="22.2801115" lon="114.2080831">
<ele>152.481</ele>
<time>2018-12-30T03:51:51.576Z</time>
</trkpt>
<trkpt lat="22.2801115" lon="114.2080831">
<ele>152.591</ele>
<time>2018-12-30T03:52:11.998Z</time>
</trkpt>
<trkpt lat="22.2801115" lon="114.2080831">
<ele>152.486</ele>
<time>2018-12-30T03:52:12.098Z</time>
</trkpt>
<trkpt lat="22.2801822" lon="114.2080146">
<ele>152.395</ele>
<time>2018-12-30T03:52:32.975Z</time>
</trkpt>
<trkpt lat="22.2802039" lon="114.2079133">
<ele>157.583</ele>
<time>2018-12-30T03:52:45.997Z</time>
</trkpt>
<trkpt lat="22.2802039" lon="114.2079133">
<ele>171.091</ele>
<time>2018-12-30T03:52:48.997Z</time>
</trkpt>
<trkpt lat="22.2802039" lon="114.2079133">
<ele>182.327</ele>
<time>2018-12-30T03:53:15.904Z</time>
</trkpt>
<trkpt lat="22.2801879" lon="114.2078108">
<ele>176.034</ele>
<time>2018-12-30T03:53:43.264Z</time>
</trkpt>
<trkpt lat="22.2802039" lon="114.2077081">
<ele>173.184</ele>
<time>2018-12-30T03:53:52.798Z</time>
</trkpt>
<trkpt lat="22.2802245" lon="114.2076135">
<ele>175.733</ele>
<time>2018-12-30T03:54:00.995Z</time>
</trkpt>
<trkpt lat="22.2802245" lon="114.2076135">
<ele>179.979</ele>
<time>2018-12-30T03:54:11.995Z</time>
</trkpt>
<trkpt lat="22.2802245" lon="114.2076135">
<ele>181.990</ele>
<time>2018-12-30T03:54:16.258Z</time>
</trkpt>
<trkpt lat="22.2801274" lon="114.2074776">
<ele>181.669</ele>
<time>2018-12-30T03:54:29.995Z</time>
</trkpt>
<trkpt lat="22.2801274" lon="114.2074776">
<ele>180.767</ele>
<time>2018-12-30T03:54:44.994Z</time>
</trkpt>
<trkpt lat="22.2801274" lon="114.2074776">
<ele>180.551</ele>
<time>2018-12-30T03:55:12.020Z</time>
</trkpt>
<trkpt lat="22.2801274" lon="114.2074776">
<ele>180.800</ele>
<time>2018-12-30T03:55:25.993Z</time>
</trkpt>
<trkpt lat="22.2801274" lon="114.2074776">
<ele>180.684</ele>
<time>2018-12-30T03:55:26.093Z</time>
</trkpt>
<trkpt lat="22.2801274" lon="114.2074776">
<ele>180.559</ele>
<time>2018-12-30T03:55:29.993Z</time>
</trkpt>
<trkpt lat="22.2801274" lon="114.2074776">
<ele>180.539</ele>
<time>2018-12-30T03:55:33.445Z</time>
</trkpt>
<trkpt lat="22.2801728" lon="114.2073397">
<ele>180.478</ele>
<time>2018-12-30T03:55:53.539Z</time>
</trkpt>
<trkpt lat="22.2801876" lon="114.2072396">
<ele>180.593</ele>
<time>2018-12-30T03:56:05.011Z</time>
</trkpt>
<trkpt lat="22.2802003" lon="114.2071390">
<ele>181.569</ele>
<time>2018-12-30T03:56:20.992Z</time>
</trkpt>
<trkpt lat="22.2802003" lon="114.2071390">
<ele>183.438</ele>
<time>2018-12-30T03:56:23.992Z</time>
</trkpt>
<trkpt lat="22.2802003" lon="114.2071390">
<ele>184.775</ele>
<time>2018-12-30T03:56:34.514Z</time>
</trkpt>
<trkpt lat="22.2802555" lon="114.2070422">
<ele>184.652</ele>
<time>2018-12-30T03:56:49.566Z</time>
</trkpt>
<trkpt lat="22.2802653" lon="114.2069373">
<ele>185.319</ele>
<time>2018-12-30T03:56:59.207Z</time>
</trkpt>
<trkpt lat="22.2803020" lon="114.2068452">
<ele>188.722</ele>
<time>2018-12-30T03:57:08.832Z</time>
</trkpt>
<trkpt lat="22.2803935" lon="114.2067930">
<ele>192.851</ele>
<time>2018-12-30T03:57:18.777Z</time>
</trkpt>
<trkpt lat="22.2804898" lon="114.2067932">
<ele>195.139</ele>
<time>2018-12-30T03:57:26.199Z</time>
</trkpt>
<trkpt lat="22.2805668" lon="114.2068455">
<ele>195.670</ele>
<time>2018-12-30T03:57:33.771Z</time>
</trkpt>
<trkpt lat="22.2806616" lon="114.2068437">
<ele>195.411</ele>
<time>2018-12-30T03:57:42.537Z</time>
</trkpt>
<trkpt lat="22.2807580" lon="114.2068691">
<ele>194.970</ele>
<time>2018-12-30T03:57:53.487Z</time>
</trkpt>
<trkpt lat="22.2808446" lon="114.2068152">
<ele>194.529</ele>
<time>2018-12-30T03:58:03.085Z</time>
</trkpt>
<trkpt lat="22.2808980" lon="114.2067339">
<ele>194.223</ele>
<time>2018-12-30T03:58:12.476Z</time>
</trkpt>
<trkpt lat="22.2809584" lon="114.2066539">
<ele>194.164</ele>
<time>2018-12-30T03:58:22.147Z</time>
</trkpt>
<trkpt lat="22.2810442" lon="114.2066189">
<ele>194.361</ele>
<time>2018-12-30T03:58:30.495Z</time>
</trkpt>
<trkpt lat="22.2811027" lon="114.2065352">
<ele>194.819</ele>
<time>2018-12-30T03:58:39.917Z</time>
</trkpt>
<trkpt lat="22.2811639" lon="114.2064546">
<ele>195.403</ele>
<time>2018-12-30T03:58:49.921Z</time>
</trkpt>
<trkpt lat="22.2812215" lon="114.2063627">
<ele>195.814</ele>
<time>2018-12-30T03:58:59.511Z</time>
</trkpt>
<trkpt lat="22.2813049" lon="114.2063182">
<ele>195.922</ele>
<time>2018-12-30T03:59:07.626Z</time>
</trkpt>
<trkpt lat="22.2814003" lon="114.2063303">
<ele>195.940</ele>
<time>2018-12-30T03:59:16.421Z</time>
</trkpt>
<trkpt lat="22.2814974" lon="114.2063039">
<ele>196.057</ele>
<time>2018-12-30T03:59:25.970Z</time>
</trkpt>
<trkpt lat="22.2815478" lon="114.2063916">
<ele>196.215</ele>
<time>2018-12-30T03:59:34.998Z</time>
</trkpt>
<trkpt lat="22.2815478" lon="114.2063916">
<ele>196.264</ele>
<time>2018-12-30T03:59:34.998Z</time>
</trkpt>
<trkpt lat="22.2815478" lon="114.2063916">
<ele>196.183</ele>
<time>2018-12-30T03:59:35.389Z</time>
</trkpt>
<trkpt lat="22.2817279" lon="114.2064252">
<ele>196.076</ele>
<time>2018-12-30T04:00:00.076Z</time>
</trkpt>
<trkpt lat="22.2818099" lon="114.2063635">
<ele>196.032</ele>
<time>2018-12-30T04:00:07.997Z</time>
</trkpt>
<trkpt lat="22.2818099" lon="114.2063635">
<ele>196.040</ele>
<time>2018-12-30T04:00:09.997Z</time>
</trkpt>
<trkpt lat="22.2818099" lon="114.2063635">
<ele>196.028</ele>
<time>2018-12-30T04:00:14.424Z</time>
</trkpt>
<trkpt lat="22.2819083" lon="114.2063868">
<ele>195.854</ele>
<time>2018-12-30T04:00:30.173Z</time>
</trkpt>
<trkpt lat="22.2819565" lon="114.2062925">
<ele>195.687</ele>
<time>2018-12-30T04:00:39.281Z</time>
</trkpt>
<trkpt lat="22.2820379" lon="114.2062428">
<ele>195.368</ele>
<time>2018-12-30T04:00:47.075Z</time>
</trkpt>
<trkpt lat="22.2820823" lon="114.2061517">
<ele>195.055</ele>
<time>2018-12-30T04:00:54.996Z</time>
</trkpt>
<trkpt lat="22.2820823" lon="114.2061517">
<ele>194.903</ele>
<time>2018-12-30T04:01:09.995Z</time>
</trkpt>
<trkpt lat="22.2820823" lon="114.2061517">
<ele>194.854</ele>
<time>2018-12-30T04:01:32.050Z</time>
</trkpt>
<trkpt lat="22.2822728" lon="114.2060988">
<ele>194.836</ele>
<time>2018-12-30T04:01:57.994Z</time>
</trkpt>
<trkpt lat="22.2822728" lon="114.2060988">
<ele>194.807</ele>
<time>2018-12-30T04:02:05.994Z</time>
</trkpt>
<trkpt lat="22.2822728" lon="114.2060988">
<ele>194.742</ele>
<time>2018-12-30T04:02:13.864Z</time>
</trkpt>
<trkpt lat="22.2823633" lon="114.2061104">
<ele>194.599</ele>
<time>2018-12-30T04:02:36.046Z</time>
</trkpt>
<trkpt lat="22.2824586" lon="114.2060877">
<ele>196.140</ele>
<time>2018-12-30T04:02:47.251Z</time>
</trkpt>
<trkpt lat="22.2825439" lon="114.2061233">
<ele>200.319</ele>
<time>2018-12-30T04:02:55.573Z</time>
</trkpt>
<trkpt lat="22.2826333" lon="114.2061394">
<ele>204.775</ele>
<time>2018-12-30T04:03:06.369Z</time>
</trkpt>
<trkpt lat="22.2827237" lon="114.2061228">
<ele>206.877</ele>
<time>2018-12-30T04:03:18.654Z</time>
</trkpt>
<trkpt lat="22.2828153" lon="114.2061382">
<ele>206.744</ele>
<time>2018-12-30T04:03:31.811Z</time>
</trkpt>
<trkpt lat="22.2829037" lon="114.2061005">
<ele>205.467</ele>
<time>2018-12-30T04:03:44.415Z</time>
</trkpt>
<trkpt lat="22.2829906" lon="114.2060750">
<ele>204.031</ele>
<time>2018-12-30T04:03:57.303Z</time>
</trkpt>
<trkpt lat="22.2830532" lon="114.2059954">
<ele>202.849</ele>
<time>2018-12-30T04:04:12.091Z</time>
</trkpt>
<trkpt lat="22.2831483" lon="114.2060188">
<ele>201.947</ele>
<time>2018-12-30T04:04:21.491Z</time>
</trkpt>
<trkpt lat="22.2832413" lon="114.2060155">
<ele>201.342</ele>
<time>2018-12-30T04:04:27.856Z</time>
</trkpt>
<trkpt lat="22.2833399" lon="114.2060327">
<ele>200.991</ele>
<time>2018-12-30T04:04:34.090Z</time>
</trkpt>
<trkpt lat="22.2834418" lon="114.2060521">
<ele>200.575</ele>
<time>2018-12-30T04:04:40.729Z</time>
</trkpt>
<trkpt lat="22.2835335" lon="114.2060359">
<ele>199.813</ele>
<time>2018-12-30T04:04:47.287Z</time>
</trkpt>
<trkpt lat="22.2836093" lon="114.2059716">
<ele>198.855</ele>
<time>2018-12-30T04:04:55.211Z</time>
</trkpt>
<trkpt lat="22.2836051" lon="114.2058701">
<ele>198.044</ele>
<time>2018-12-30T04:05:04.388Z</time>
</trkpt>
<trkpt lat="22.2836390" lon="114.2057799">
<ele>197.496</ele>
<time>2018-12-30T04:05:14.729Z</time>
</trkpt>
<trkpt lat="22.2837249" lon="114.2057499">
<ele>197.126</ele>
<time>2018-12-30T04:05:24.098Z</time>
</trkpt>
<trkpt lat="22.2837983" lon="114.2056758">
<ele>196.886</ele>
<time>2018-12-30T04:05:33.562Z</time>
</trkpt>
<trkpt lat="22.2838334" lon="114.2055797">
<ele>196.873</ele>
<time>2018-12-30T04:05:43.096Z</time>
</trkpt>
<trkpt lat="22.2838972" lon="114.2055025">
<ele>197.110</ele>
<time>2018-12-30T04:05:53.877Z</time>
</trkpt>
<trkpt lat="22.2839216" lon="114.2054044">
<ele>197.421</ele>
<time>2018-12-30T04:06:04.711Z</time>
</trkpt>
<trkpt lat="22.2839193" lon="114.2053070">
<ele>197.539</ele>
<time>2018-12-30T04:06:16.086Z</time>
</trkpt>
<trkpt lat="22.2839152" lon="114.2052038">
<ele>197.371</ele>
<time>2018-12-30T04:06:28.925Z</time>
</trkpt>
<trkpt lat="22.2838488" lon="114.2051300">
<ele>196.550</ele>
<time>2018-12-30T04:06:40.019Z</time>
</trkpt>
<trkpt lat="22.2838302" lon="114.2050322">
<ele>194.919</ele>
<time>2018-12-30T04:06:51.121Z</time>
</trkpt>
<trkpt lat="22.2837591" lon="114.2049624">
<ele>193.280</ele>
<time>2018-12-30T04:07:03.460Z</time>
</trkpt>
<trkpt lat="22.2836724" lon="114.2049281">
<ele>192.428</ele>
<time>2018-12-30T04:07:13.997Z</time>
</trkpt>
<trkpt lat="22.2836724" lon="114.2049281">
<ele>192.187</ele>
<time>2018-12-30T04:07:15.997Z</time>
</trkpt>
<trkpt lat="22.2836724" lon="114.2049281">
<ele>192.156</ele>
<time>2018-12-30T04:07:28.655Z</time>
</trkpt>
<trkpt lat="22.2836387" lon="114.2048056">
<ele>192.115</ele>
<time>2018-12-30T04:07:45.783Z</time>
</trkpt>
<trkpt lat="22.2836851" lon="114.2047105">
<ele>191.993</ele>
<time>2018-12-30T04:07:53.240Z</time>
</trkpt>
<trkpt lat="22.2835910" lon="114.2046577">
<ele>191.800</ele>
<time>2018-12-30T04:07:59.783Z</time>
</trkpt>
<trkpt lat="22.2834894" lon="114.2046473">
<ele>191.760</ele>
<time>2018-12-30T04:08:05.208Z</time>
</trkpt>
<trkpt lat="22.2833900" lon="114.2046552">
<ele>192.224</ele>
<time>2018-12-30T04:08:10.741Z</time>
</trkpt>
<trkpt lat="22.2833191" lon="114.2045936">
<ele>193.131</ele>
<time>2018-12-30T04:08:15.995Z</time>
</trkpt>
<trkpt lat="22.2833191" lon="114.2045936">
<ele>193.942</ele>
<time>2018-12-30T04:08:29.995Z</time>
</trkpt>
<trkpt lat="22.2833191" lon="114.2045936">
<ele>194.248</ele>
<time>2018-12-30T04:08:30.095Z</time>
</trkpt>
<trkpt lat="22.2835105" lon="114.2044797">
<ele>194.122</ele>
<time>2018-12-30T04:09:35.830Z</time>
</trkpt>
<trkpt lat="22.2836026" lon="114.2045106">
<ele>194.198</ele>
<time>2018-12-30T04:09:45.367Z</time>
</trkpt>
<trkpt lat="22.2836665" lon="114.2045847">
<ele>195.095</ele>
<time>2018-12-30T04:09:52.522Z</time>
</trkpt>
<trkpt lat="22.2837218" lon="114.2046673">
<ele>196.727</ele>
<time>2018-12-30T04:09:59.607Z</time>
</trkpt>
<trkpt lat="22.2837919" lon="114.2047345">
<ele>198.433</ele>
<time>2018-12-30T04:10:08.470Z</time>
</trkpt>
<trkpt lat="22.2838710" lon="114.2047889">
<ele>199.556</ele>
<time>2018-12-30T04:10:19.105Z</time>
</trkpt>
<trkpt lat="22.2839662" lon="114.2047953">
<ele>199.850</ele>
<time>2018-12-30T04:10:33.621Z</time>
</trkpt>
<trkpt lat="22.2840524" lon="114.2047509">
<ele>199.521</ele>
<time>2018-12-30T04:10:50.102Z</time>
</trkpt>
<trkpt lat="22.2840655" lon="114.2046471">
<ele>198.962</ele>
<time>2018-12-30T04:11:02.851Z</time>
</trkpt>
<trkpt lat="22.2841219" lon="114.2045701">
<ele>198.558</ele>
<time>2018-12-30T04:11:13.604Z</time>
</trkpt>
<trkpt lat="22.2841504" lon="114.2044679">
<ele>198.224</ele>
<time>2018-12-30T04:11:27.936Z</time>
</trkpt>
<trkpt lat="22.2841942" lon="114.2043829">
<ele>197.588</ele>
<time>2018-12-30T04:11:41.002Z</time>
</trkpt>
<trkpt lat="22.2841455" lon="114.2042844">
<ele>196.601</ele>
<time>2018-12-30T04:11:55.999Z</time>
</trkpt>
<trkpt lat="22.2842124" lon="114.2042170">
<ele>195.372</ele>
<time>2018-12-30T04:12:09.274Z</time>
</trkpt>
<trkpt lat="22.2842682" lon="114.2041345">
<ele>193.874</ele>
<time>2018-12-30T04:12:22.992Z</time>
</trkpt>
<trkpt lat="22.2842931" lon="114.2040411">
<ele>192.379</ele>
<time>2018-12-30T04:12:36.046Z</time>
</trkpt>
<trkpt lat="22.2843758" lon="114.2039943">
<ele>191.231</ele>
<time>2018-12-30T04:12:49.061Z</time>
</trkpt>
<trkpt lat="22.2843803" lon="114.2038934">
<ele>190.446</ele>
<time>2018-12-30T04:13:00.051Z</time>
</trkpt>
<trkpt lat="22.2843289" lon="114.2038137">
<ele>190.221</ele>
<time>2018-12-30T04:13:10.264Z</time>
</trkpt>
<trkpt lat="22.2842851" lon="114.2037252">
<ele>190.987</ele>
<time>2018-12-30T04:13:20.680Z</time>
</trkpt>
<trkpt lat="22.2841981" lon="114.2036800">
<ele>192.441</ele>
<time>2018-12-30T04:13:29.760Z</time>
</trkpt>
<trkpt lat="22.2841043" lon="114.2036524">
<ele>193.822</ele>
<time>2018-12-30T04:13:39.387Z</time>
</trkpt>
<trkpt lat="22.2840259" lon="114.2035831">
<ele>194.767</ele>
<time>2018-12-30T04:13:50.491Z</time>
</trkpt>
<trkpt lat="22.2839299" lon="114.2035950">
<ele>195.170</ele>
<time>2018-12-30T04:14:01.277Z</time>
</trkpt>
<trkpt lat="22.2838342" lon="114.2036299">
<ele>194.764</ele>
<time>2018-12-30T04:14:13.955Z</time>
</trkpt>
<trkpt lat="22.2837342" lon="114.2036284">
<ele>193.330</ele>
<time>2018-12-30T04:14:27.718Z</time>
</trkpt>
<trkpt lat="22.2836549" lon="114.2035793">
<ele>191.211</ele>
<time>2018-12-30T04:14:37.530Z</time>
</trkpt>
<trkpt lat="22.2835703" lon="114.2035274">
<ele>189.060</ele>
<time>2018-12-30T04:14:48.694Z</time>
</trkpt>
<trkpt lat="22.2835130" lon="114.2036122">
<ele>187.166</ele>
<time>2018-12-30T04:14:59.817Z</time>
</trkpt>
<trkpt lat="22.2834427" lon="114.2036911">
<ele>185.758</ele>
<time>2018-12-30T04:15:11.632Z</time>
</trkpt>
<trkpt lat="22.2833464" lon="114.2036840">
<ele>185.038</ele>
<time>2018-12-30T04:15:24.448Z</time>
</trkpt>
<trkpt lat="22.2832679" lon="114.2036310">
<ele>184.803</ele>
<time>2018-12-30T04:15:34.248Z</time>
</trkpt>
<trkpt lat="22.2832183" lon="114.2035300">
<ele>184.884</ele>
<time>2018-12-30T04:15:43.371Z</time>
</trkpt>
<trkpt lat="22.2832089" lon="114.2034299">
<ele>185.266</ele>
<time>2018-12-30T04:15:53.160Z</time>
</trkpt>
<trkpt lat="22.2831276" lon="114.2033746">
<ele>185.961</ele>
<time>2018-12-30T04:16:05.210Z</time>
</trkpt>
<trkpt lat="22.2830487" lon="114.2033210">
<ele>186.908</ele>
<time>2018-12-30T04:16:15.994Z</time>
</trkpt>
<trkpt lat="22.2830487" lon="114.2033210">
<ele>187.789</ele>
<time>2018-12-30T04:16:29.994Z</time>
</trkpt>
<trkpt lat="22.2830487" lon="114.2033210">
<ele>188.181</ele>
<time>2018-12-30T04:22:18.551Z</time>
</trkpt>
<trkpt lat="22.2829886" lon="114.2031769">
<ele>188.058</ele>
<time>2018-12-30T04:22:39.192Z</time>
</trkpt>
<trkpt lat="22.2830619" lon="114.2030971">
<ele>189.225</ele>
<time>2018-12-30T04:22:47.983Z</time>
</trkpt>
<trkpt lat="22.2831442" lon="114.2030522">
<ele>193.325</ele>
<time>2018-12-30T04:22:55.995Z</time>
</trkpt>
<trkpt lat="22.2831442" lon="114.2030522">
<ele>198.426</ele>
<time>2018-12-30T04:22:55.995Z</time>
</trkpt>
<trkpt lat="22.2831442" lon="114.2030522">
<ele>201.103</ele>
<time>2018-12-30T04:22:59.972Z</time>
</trkpt>
<trkpt lat="22.2832372" lon="114.2030667">
<ele>199.318</ele>
<time>2018-12-30T04:23:26.686Z</time>
</trkpt>
<trkpt lat="22.2833270" lon="114.2030258">
<ele>199.257</ele>
<time>2018-12-30T04:23:34.673Z</time>
</trkpt>
<trkpt lat="22.2834144" lon="114.2029872">
<ele>201.472</ele>
<time>2018-12-30T04:23:41.136Z</time>
</trkpt>
<trkpt lat="22.2834415" lon="114.2028881">
<ele>204.245</ele>
<time>2018-12-30T04:23:47.645Z</time>
</trkpt>
<trkpt lat="22.2834668" lon="114.2027876">
<ele>205.676</ele>
<time>2018-12-30T04:23:54.254Z</time>
</trkpt>
<trkpt lat="22.2834266" lon="114.2026908">
<ele>205.654</ele>
<time>2018-12-30T04:24:00.993Z</time>
</trkpt>
<trkpt lat="22.2834266" lon="114.2026908">
<ele>204.899</ele>
<time>2018-12-30T04:24:10.993Z</time>
</trkpt>
<trkpt lat="22.2834266" lon="114.2026908">
<ele>204.302</ele>
<time>2018-12-30T04:24:11.093Z</time>
</trkpt>
<trkpt lat="22.2834954" lon="114.2025944">
<ele>204.444</ele>
<time>2018-12-30T04:25:00.442Z</time>
</trkpt>
<trkpt lat="22.2835908" lon="114.2026053">
<ele>203.877</ele>
<time>2018-12-30T04:25:21.991Z</time>
</trkpt>
<trkpt lat="22.2835908" lon="114.2026053">
<ele>202.013</ele>
<time>2018-12-30T04:25:25.991Z</time>
</trkpt>
<trkpt lat="22.2835908" lon="114.2026053">
<ele>200.374</ele>
<time>2018-12-30T04:25:26.091Z</time>
</trkpt>
<trkpt lat="22.2837179" lon="114.2025820">
<ele>200.312</ele>
<time>2018-12-30T04:25:39.991Z</time>
</trkpt>
<trkpt lat="22.2837179" lon="114.2025820">
<ele>200.842</ele>
<time>2018-12-30T04:25:43.991Z</time>
</trkpt>
<trkpt lat="22.2837179" lon="114.2025820">
<ele>200.823</ele>
<time>2018-12-30T04:25:45.549Z</time>
</trkpt>
<trkpt lat="22.2838109" lon="114.2026004">
<ele>200.391</ele>
<time>2018-12-30T04:26:16.186Z</time>
</trkpt>
<trkpt lat="22.2839171" lon="114.2026421">
<ele>200.626</ele>
<time>2018-12-30T04:26:25.898Z</time>
</trkpt>
<trkpt lat="22.2840100" lon="114.2026090">
<ele>201.159</ele>
<time>2018-12-30T04:26:32.415Z</time>
</trkpt>
<trkpt lat="22.2841002" lon="114.2025678">
<ele>201.890</ele>
<time>2018-12-30T04:26:39.187Z</time>
</trkpt>
<trkpt lat="22.2841886" lon="114.2025286">
<ele>202.666</ele>
<time>2018-12-30T04:26:45.504Z</time>
</trkpt>
<trkpt lat="22.2842411" lon="114.2024364">
<ele>203.280</ele>
<time>2018-12-30T04:26:51.943Z</time>
</trkpt>
<trkpt lat="22.2842578" lon="114.2023257">
<ele>203.530</ele>
<time>2018-12-30T04:26:58.809Z</time>
</trkpt>
<trkpt lat="22.2842258" lon="114.2022278">
<ele>203.474</ele>
<time>2018-12-30T04:27:05.314Z</time>
</trkpt>
<trkpt lat="22.2841520" lon="114.2021598">
<ele>203.296</ele>
<time>2018-12-30T04:27:12.063Z</time>
</trkpt>
<trkpt lat="22.2841518" lon="114.2020554">
<ele>202.945</ele>
<time>2018-12-30T04:27:18.960Z</time>
</trkpt>
<trkpt lat="22.2841070" lon="114.2019590">
<ele>202.213</ele>
<time>2018-12-30T04:27:26.081Z</time>
</trkpt>
<trkpt lat="22.2840501" lon="114.2018655">
<ele>201.224</ele>
<time>2018-12-30T04:27:33.689Z</time>
</trkpt>
<trkpt lat="22.2840330" lon="114.2017698">
<ele>200.229</ele>
<time>2018-12-30T04:27:41.068Z</time>
</trkpt>
<trkpt lat="22.2839792" lon="114.2016838">
<ele>199.175</ele>
<time>2018-12-30T04:27:49.358Z</time>
</trkpt>
<trkpt lat="22.2839760" lon="114.2015837">
<ele>198.135</ele>
<time>2018-12-30T04:27:56.156Z</time>
</trkpt>
<trkpt lat="22.2839357" lon="114.2014910">
<ele>197.473</ele>
<time>2018-12-30T04:28:02.999Z</time>
</trkpt>
<trkpt lat="22.2839357" lon="114.2014910">
<ele>197.294</ele>
<time>2018-12-30T04:28:04.999Z</time>
</trkpt>
<trkpt lat="22.2839357" lon="114.2014910">
<ele>197.323</ele>
<time>2018-12-30T04:28:05.958Z</time>
</trkpt>
<trkpt lat="22.2838358" lon="114.2014648">
<ele>197.302</ele>
<time>2018-12-30T04:28:20.442Z</time>
</trkpt>
<trkpt lat="22.2838446" lon="114.2013595">
<ele>197.126</ele>
<time>2018-12-30T04:28:31.998Z</time>
</trkpt>
<trkpt lat="22.2838446" lon="114.2013595">
<ele>196.844</ele>
<time>2018-12-30T04:28:32.998Z</time>
</trkpt>
<trkpt lat="22.2838446" lon="114.2013595">
<ele>196.621</ele>
<time>2018-12-30T04:28:33.826Z</time>
</trkpt>
<trkpt lat="22.2838477" lon="114.2012622">
<ele>196.586</ele>
<time>2018-12-30T04:28:49.925Z</time>
</trkpt>
<trkpt lat="22.2837840" lon="114.2011892">
<ele>196.939</ele>
<time>2018-12-30T04:28:58.682Z</time>
</trkpt>
<trkpt lat="22.2837069" lon="114.2011372">
<ele>197.686</ele>
<time>2018-12-30T04:29:07.560Z</time>
</trkpt>
<trkpt lat="22.2836808" lon="114.2010381">
<ele>198.217</ele>
<time>2018-12-30T04:29:17.928Z</time>
</trkpt>
<trkpt lat="22.2837003" lon="114.2009301">
<ele>198.097</ele>
<time>2018-12-30T04:29:27.104Z</time>
</trkpt>
<trkpt lat="22.2837324" lon="114.2008359">
<ele>197.653</ele>
<time>2018-12-30T04:29:33.839Z</time>
</trkpt>
<trkpt lat="22.2836917" lon="114.2007428">
<ele>197.187</ele>
<time>2018-12-30T04:29:42.989Z</time>
</trkpt>
<trkpt lat="22.2836104" lon="114.2006750">
<ele>196.696</ele>
<time>2018-12-30T04:29:53.489Z</time>
</trkpt>
<trkpt lat="22.2835167" lon="114.2006540">
<ele>196.182</ele>
<time>2018-12-30T04:30:03.027Z</time>
</trkpt>
<trkpt lat="22.2834944" lon="114.2005550">
<ele>195.668</ele>
<time>2018-12-30T04:30:12.364Z</time>
</trkpt>
<trkpt lat="22.2834273" lon="114.2004702">
<ele>195.195</ele>
<time>2018-12-30T04:30:22.537Z</time>
</trkpt>
<trkpt lat="22.2833763" lon="114.2003815">
<ele>194.719</ele>
<time>2018-12-30T04:30:28.719Z</time>
</trkpt>
<trkpt lat="22.2833194" lon="114.2002942">
<ele>194.124</ele>
<time>2018-12-30T04:30:34.784Z</time>
</trkpt>
<trkpt lat="22.2832587" lon="114.2002100">
<ele>193.399</ele>
<time>2018-12-30T04:30:41.594Z</time>
</trkpt>
<trkpt lat="22.2831630" lon="114.2001955">
<ele>192.255</ele>
<time>2018-12-30T04:30:49.000Z</time>
</trkpt>
<trkpt lat="22.2830699" lon="114.2002026">
<ele>190.460</ele>
<time>2018-12-30T04:30:55.158Z</time>
</trkpt>
<trkpt lat="22.2829820" lon="114.2002231">
<ele>188.648</ele>
<time>2018-12-30T04:31:01.113Z</time>
</trkpt>
<trkpt lat="22.2828808" lon="114.2002256">
<ele>187.519</ele>
<time>2018-12-30T04:31:09.645Z</time>
</trkpt>
<trkpt lat="22.2827839" lon="114.2002256">
<ele>186.751</ele>
<time>2018-12-30T04:31:17.396Z</time>
</trkpt>
<trkpt lat="22.2826966" lon="114.2002734">
<ele>185.773</ele>
<time>2018-12-30T04:31:23.888Z</time>
</trkpt>
<trkpt lat="22.2826153" lon="114.2003349">
<ele>184.715</ele>
<time>2018-12-30T04:31:33.152Z</time>
</trkpt>
<trkpt lat="22.2825591" lon="114.2004276">
<ele>184.014</ele>
<time>2018-12-30T04:31:43.044Z</time>
</trkpt>
<trkpt lat="22.2824690" lon="114.2004140">
<ele>183.711</ele>
<time>2018-12-30T04:31:52.223Z</time>
</trkpt>
<trkpt lat="22.2823783" lon="114.2004493">
<ele>183.447</ele>
<time>2018-12-30T04:32:01.888Z</time>
</trkpt>
<trkpt lat="22.2824009" lon="114.2003412">
<ele>182.996</ele>
<time>2018-12-30T04:32:14.654Z</time>
</trkpt>
<trkpt lat="22.2824559" lon="114.2002468">
<ele>182.914</ele>
<time>2018-12-30T04:32:26.261Z</time>
</trkpt>
<trkpt lat="22.2824515" lon="114.2001489">
<ele>183.631</ele>
<time>2018-12-30T04:32:34.147Z</time>
</trkpt>
<trkpt lat="22.2824390" lon="114.2000409">
<ele>184.618</ele>
<time>2018-12-30T04:32:41.449Z</time>
</trkpt>
<trkpt lat="22.2824089" lon="114.1999456">
<ele>185.585</ele>
<time>2018-12-30T04:32:48.381Z</time>
</trkpt>
<trkpt lat="22.2824012" lon="114.1998341">
<ele>186.678</ele>
<time>2018-12-30T04:32:56.034Z</time>
</trkpt>
<trkpt lat="22.2823459" lon="114.1997551">
<ele>187.574</ele>
<time>2018-12-30T04:33:03.474Z</time>
</trkpt>
<trkpt lat="22.2823056" lon="114.1996681">
<ele>187.901</ele>
<time>2018-12-30T04:33:11.453Z</time>
</trkpt>
<trkpt lat="22.2822819" lon="114.1995688">
<ele>187.652</ele>
<time>2018-12-30T04:33:24.252Z</time>
</trkpt>
<trkpt lat="22.2823778" lon="114.1995465">
<ele>186.920</ele>
<time>2018-12-30T04:33:39.153Z</time>
</trkpt>
<trkpt lat="22.2824855" lon="114.1995620">
<ele>186.008</ele>
<time>2018-12-30T04:33:52.124Z</time>
</trkpt>
<trkpt lat="22.2825255" lon="114.1996569">
<ele>185.394</ele>
<time>2018-12-30T04:34:02.688Z</time>
</trkpt>
<trkpt lat="22.2826153" lon="114.1996225">
<ele>185.293</ele>
<time>2018-12-30T04:34:12.326Z</time>
</trkpt>
<trkpt lat="22.2827124" lon="114.1995742">
<ele>185.505</ele>
<time>2018-12-30T04:34:22.511Z</time>
</trkpt>
<trkpt lat="22.2828080" lon="114.1995773">
<ele>185.814</ele>
<time>2018-12-30T04:34:32.229Z</time>
</trkpt>
<trkpt lat="22.2828974" lon="114.1995206">
<ele>185.324</ele>
<time>2018-12-30T04:34:44.490Z</time>
</trkpt>
<trkpt lat="22.2829320" lon="114.1994198">
<ele>184.879</ele>
<time>2018-12-30T04:34:54.393Z</time>
</trkpt>
<trkpt lat="22.2829775" lon="114.1993252">
<ele>184.111</ele>
<time>2018-12-30T04:35:02.669Z</time>
</trkpt>
<trkpt lat="22.2830727" lon="114.1992907">
<ele>182.991</ele>
<time>2018-12-30T04:35:11.394Z</time>
</trkpt>
<trkpt lat="22.2831255" lon="114.1992032">
<ele>181.885</ele>
<time>2018-12-30T04:35:19.356Z</time>
</trkpt>
<trkpt lat="22.2831002" lon="114.1991031">
<ele>181.187</ele>
<time>2018-12-30T04:35:26.410Z</time>
</trkpt>
<trkpt lat="22.2831119" lon="114.1989982">
<ele>180.795</ele>
<time>2018-12-30T04:35:32.562Z</time>
</trkpt>
<trkpt lat="22.2831883" lon="114.1989357">
<ele>180.124</ele>
<time>2018-12-30T04:35:38.543Z</time>
</trkpt>
<trkpt lat="22.2832773" lon="114.1989509">
<ele>178.987</ele>
<time>2018-12-30T04:35:44.481Z</time>
</trkpt>
<trkpt lat="22.2833238" lon="114.1990411">
<ele>177.977</ele>
<time>2018-12-30T04:35:50.404Z</time>
</trkpt>
<trkpt lat="22.2834106" lon="114.1990878">
<ele>177.420</ele>
<time>2018-12-30T04:35:55.856Z</time>
</trkpt>
<trkpt lat="22.2835076" lon="114.1990567">
<ele>177.056</ele>
<time>2018-12-30T04:36:02.236Z</time>
</trkpt>
<trkpt lat="22.2835878" lon="114.1991116">
<ele>176.569</ele>
<time>2018-12-30T04:36:09.286Z</time>
</trkpt>
<trkpt lat="22.2836780" lon="114.1991499">
<ele>175.792</ele>
<time>2018-12-30T04:36:17.818Z</time>
</trkpt>
<trkpt lat="22.2837743" lon="114.1991419">
<ele>174.864</ele>
<time>2018-12-30T04:36:25.996Z</time>
</trkpt>
<trkpt lat="22.2837743" lon="114.1991419">
<ele>174.103</ele>
<time>2018-12-30T04:36:27.996Z</time>
</trkpt>
<trkpt lat="22.2837743" lon="114.1991419">
<ele>173.705</ele>
<time>2018-12-30T04:37:20.995Z</time>
</trkpt>
<trkpt lat="22.2837743" lon="114.1991419">
<ele>173.671</ele>
<time>2018-12-30T04:37:24.378Z</time>
</trkpt>
<trkpt lat="22.2837163" lon="114.1990606">
<ele>173.682</ele>
<time>2018-12-30T04:37:38.808Z</time>
</trkpt>
<trkpt lat="22.2836424" lon="114.1989960">
<ele>172.858</ele>
<time>2018-12-30T04:37:49.371Z</time>
</trkpt>
<trkpt lat="22.2835620" lon="114.1989411">
<ele>170.927</ele>
<time>2018-12-30T04:38:00.002Z</time>
</trkpt>
<trkpt lat="22.2835190" lon="114.1988544">
<ele>169.390</ele>
<time>2018-12-30T04:38:08.371Z</time>
</trkpt>
<trkpt lat="22.2834508" lon="114.1987901">
<ele>169.540</ele>
<time>2018-12-30T04:38:16.800Z</time>
</trkpt>
<trkpt lat="22.2833898" lon="114.1987187">
<ele>170.719</ele>
<time>2018-12-30T04:38:25.993Z</time>
</trkpt>
<trkpt lat="22.2833898" lon="114.1987187">
<ele>171.937</ele>
<time>2018-12-30T04:38:29.993Z</time>
</trkpt>
<trkpt lat="22.2833898" lon="114.1987187">
<ele>172.571</ele>
<time>2018-12-30T04:38:54.338Z</time>
</trkpt>
<trkpt lat="22.2834341" lon="114.1988507">
<ele>172.446</ele>
<time>2018-12-30T04:39:02.065Z</time>
</trkpt>
<trkpt lat="22.2835223" lon="114.1989130">
<ele>172.060</ele>
<time>2018-12-30T04:39:05.066Z</time>
</trkpt>
<trkpt lat="22.2836429" lon="114.1990160">
<ele>171.854</ele>
<time>2018-12-30T04:39:08.475Z</time>
</trkpt>
<trkpt lat="22.2837569" lon="114.1990998">
<ele>171.782</ele>
<time>2018-12-30T04:39:10.993Z</time>
</trkpt>
<trkpt lat="22.2838935" lon="114.1991831">
<ele>171.628</ele>
<time>2018-12-30T04:39:13.492Z</time>
</trkpt>
<trkpt lat="22.2840957" lon="114.1992196">
<ele>171.333</ele>
<time>2018-12-30T04:39:16.434Z</time>
</trkpt>
<trkpt lat="22.2842847" lon="114.1992646">
<ele>171.036</ele>
<time>2018-12-30T04:39:19.132Z</time>
</trkpt>
<trkpt lat="22.2844676" lon="114.1993209">
<ele>170.865</ele>
<time>2018-12-30T04:39:21.887Z</time>
</trkpt>
<trkpt lat="22.2846419" lon="114.1993792">
<ele>170.410</ele>
<time>2018-12-30T04:39:24.634Z</time>
</trkpt>
<trkpt lat="22.2848259" lon="114.1994435">
<ele>169.295</ele>
<time>2018-12-30T04:39:27.495Z</time>
</trkpt>
<trkpt lat="22.2850230" lon="114.1995108">
<ele>167.957</ele>
<time>2018-12-30T04:39:30.397Z</time>
</trkpt>
<trkpt lat="22.2852436" lon="114.1995468">
<ele>166.866</ele>
<time>2018-12-30T04:39:33.480Z</time>
</trkpt>
<trkpt lat="22.2854088" lon="114.1996024">
<ele>166.022</ele>
<time>2018-12-30T04:39:35.991Z</time>
</trkpt>
<trkpt lat="22.2854088" lon="114.1996024">
<ele>165.496</ele>
<time>2018-12-30T04:39:40.991Z</time>
</trkpt>
</trkseg>
</trk>
<extensions>
<fpdata xmlns="http://www.motionx.com/GPX-Extensions/1/1" sfv="10" origin="MotionXGPSFull 24.4 Build 5112 R64">
<bin enc="base64">
RgIAAAACAAAA7DWzQQsK10EBAAAAtriACRMK10EAAIgcDm6yQO8BAACQuwcAslBEX4GG
XECk3fgi3q9kQAAAAAAdAAAAU3VuZGF5IEhpa2UgS29ybmhpbGwgQnJhZW1hcgAWAAAA
RGVjIDMwLCAyMDE4IDEwOjI3IGFtAAAAAADUuIAJEwrXQdKMmw4TCtdBPL9YAHOgQldD
2lpALAAAAAAAAAA9HRzGvo1cQNIWsIjgSDZAslBEX4GGXEAAAAAAAAA+QAAAAAAAADBA
AAAAAAB4h0AAAAAAAAAAAAAAAABnZmZmZsZQQPgWDQZvKWVAAQAAALqaxWir1KO/AQAA
AAEAAABD8fii8njAPzOK6YR4Bca/AQAAAAEAAAAAAAAAAAAAAAAAAAAAAAAAAAAAAAAA
AAAAAAAAAAAAAAAAAAAAAAAAAAAAAAAAAAAAAAAAERwAAJxyPwMTCtdBAAAAAAAAAAAA
AAAAAAAAAP8lRLwCAAAAAAAAAAAAAAABAAAAJwAAADI0LjIgQnVpbGQgNTA2M1I2NCwg
TVhBRSA4LjEgYi4gNjI2UjY0AAAAAABxXAAAAQAAAAFTAAAABi0oXA1MKFwEPzezQQsK
10E/N7NBCwrXQQAAAAAA0BY/AAAAAAP03jZRCwrXQfTeNlELCtdBAAAAK1IHT0AAAAAA
BIF6C14LCtdBgXoLXgsK10EAAACzRFhcQAAAAAADNA44bQsK10E0DjhtCwrXQQAAAC1s
wmVAAAAAAAQ0FMh2CwrXQTQUyHYLCtdBAACAKm+KakAAAAAAA0pfeHoLCtdBSl94egsK
10EAAMC3lGJsQAAAAAAE0jKJggsK10HSMomCCwrXQQAAADx/NXBAAAAAAAPuWzeECwrX
Qe5bN4QLCtdBAADggwmhcEAAAAAABIXshpgLCtdBheyGmAsK10EAAKCr7bR1QAAAAAAD
pwZ0nAsK10GnBnScCwrXQQAAIDQ0sHZAAAAAAAQsX4aeCwrXQSxfhp4LCtdBAACAU8o0
d0AAAAAAAyoCMqgLCtdBKgIyqAsK10EAAOAUs595QAAAAAAES8sFrgsK10FLywWuCwrX
QQAAIF2lFHtAAAAAAANOuHO+CwrXQU64c74LCtdBAADAmyAwf0AAAAAABKT/hsALCtdB
pP+GwAsK10EAAEBx8rR/QAAAAAAC/DWzQQsK10G04oXBCwrXQQAAAC6r9H9AAAAAAAMA
jbTKCwrXQQCNtMoLCtdBAADg7rrPgEAAAAAABLqfR84LCtdBup9HzgsK10EAADBIHUKB
QAAAAAACWmIJxAsK10F1HsbqCwrXQQAAYBrt0YRAAAAAAAKGWwnwCwrXQa5M8fELCtdB
AABgP+sOhUAAAAAAAnJoiwUMCtdBiSb2KgwK10EAAEACQ7yJQAAAAAACPzqILQwK10G+
EsYuDArXQQAAIBL+44lAAAAAAAIjvogwDArXQcDsNIEMCtdBAADg8sH8kUAAAAAAAiRf
iYsMCtdBVWtykQwK10EAAPC1UluSQAAAAAACpnmHkwwK10HctgagDArXQQAAUIlGI5NA
AAAAAAJEGs20DArXQWNgiiANCtdBAABA6xrfmUAAAAAAAsToRysNCtdBRDCGLg0K10EA
AEBj/xKaQAAAAAACwToKMw0K10Fn73E1DQrXQQAAoK16OZpAAAAAAAKWAghADQrXQSrD
8EANCtdBAADgtgZImkAAAAAAAio3yUoNCtdBWkVwZA0K10EAAOCZd+KbQAAAAAAC0BCK
qQ0K10G6hfTLDQrXQQAAgOgeCZ5AAAAAAAKYcInTDQrXQVL0CNcNCtdBAAAgJBdBnkAA
AAAAAtTVh9gNCtdBGksw+Q0K10EAAEA8zyWgQAAAAAACjpII/g0K10EooHEgDgrXQQAA
EKkXOaFAAAAAAAJ464s1DgrXQUyscToOCtdBAACwr0VgoUAAAAAAAuJYiUEOCtdBQPRG
Qw4K10EAAKCKMm6hQAAAAAACF0hJRQ4K10G4su9MDgrXQQAAqN9lq6FAAAAAAAJ0sIxy
DgrXQZJXh3cOCtdBAACYGDvToUAAAAAAAmADjnwOCtdBcy1vhQ4K10EAADBpRBqiQAAA
AAACm1XIiw4K10Ff7IWNDgrXQQAAUB8xKKJAAAAAAAKrW4+QDgrXQRKBg6YOCtdBAACI
StLXokAAAAAAAgg+irYOCtdBkC2yvQ4K10EAAMjGERGjQAAAAAACForJEw8K10FMUwcX
DwrXQQAAeBAAK6NAAAAAAAIjacgcDwrXQf4n7x0PCtdBAABQBzY0o0AAAAAAAiI4CB4P
CtdB1pLIHg8K10EAAPDcODqjQAAAAAACrwdKLg8K10HJWYcuDwrXQQAAwG0jPKNAAAAA
AAISaIouDwrXQcYwRi8PCtdBAABgswFCo0AAAAAAAp4+SDwPCtdBCrnIPw8K10EAAMCG
BV6jQAAAAAAC7tHIQg8K10HQe4ZGDwrXQQAA0NXye6NAAAAAAAIeiAhJDwrXQYrNrkoP
CtdBAAAwASWJo0AAAAAAAtj2xk4PCtdBJQVwTw8K10EAAJhzbY6jQAAAAAACkUVJUg8K
10Eouu5WDwrXQQAAUBiZs6NAAAAAAALadEhdDwrXQVinbl8PCtdBAABArMrEo0AAAAAA
AiSAyGEPCtdBtkfHZg8K10EAANDowOyjQAAAAAACP8VHaA8K10EvF0iDDwrXQQAAUHjD
xKRAAAAAAALtDYiODwrXQY5dh5APCtdBAABY9b3UpEAAAAAAAhRcTPcPCtdBcjYI/g8K
10EAAEjInAqlQAAAAAACUMjIAhAK10F6ADIFEArXQQAAmInmHaVAAAAAAAJe2MsSEArX
QXsuhx0QCtdBAACAOsFzpUAAAAAAAuCCSisQCtdBn60GLBAK10EAAHiQonmlQAAAAAAC
Un+JOBAK10GIhS87EArXQQAAKMLSjqVAAAAAAAJevYg+EArXQYxpiUQQCtdBAACYI9i+
pUAAAAAAAlRtCU4QCtdByt1GWRAK10EAAEinwximQAAAAAACaEOIXRAK10EGKm9hEArX
QQAAONz6N6ZAAAAAAAKisYdrEArXQWgIx2sQCtdBAABokvU5pkAAAAAAAoenyWsQCtdB
jEqIbBAK10EAAJCq6j+mQAAAAAACWqIKcRAK10FU30p6EArXQQAAYJLsiaZAAAAAAALe
jUl/EArXQf577qkQCtdBAABgAxTfp0AAAAAAAl01R68QCtdBkUavshAK10EAAACNVPqn
QAAAAAAC7rWHtRAK10Hmcq/BEArXQQAAwHSSW6hAAAAAAALcfYjNEArXQXjtt88QCtdB
AACg8Q1tqEAAAAAAAs44ydMQCtdBXrtFHREK10EAACAG8riqQAAAAAACsr+JIxEK10GD
v8cvEQrXQQAAqATiGqtAAAAAAALu5kk4EQrXQfIhr6cRCtdBAADI3AuWrkAAAAAAAm0A
ywISCtdBjuUrCBIK10EAANAFE8GuQAAAAAAC9wQIDRIK10HSAe4aEgrXQQAAqOxCMK9A
AAAAAAJuGwkqEgrXQcFyxy0SCtdBAABApzVOr0AAAAAAAuwwCDESCtdBpP5GMhIK10EA
AAAVLFivQAAAAAACjxoLNxIK10GBeWtVEgrXQQAASIaXJbBAAAAAAALj/odXEgrXQfEs
a1wSCtdBAACAPiQ5sEAAAAAAAmCTSF8SCtdBXHhG0xIK10EAAHDSGwmyQAAAAAACvHfI
4hIK10EChMbxEgrXQQAAiAMURbJAAAAAAAIN/gj5EgrXQU2ERwMTCtdBAACIHA5uskAA
AAAAAAAAAA==
</bin>
</fpdata>
</extensions>
</gpx>
